Time;durP1;ratioP1;P1;durP2;ratioP2;P2;SDS_P1;SDS_P2;PMS_P1;PMS_P2;Temp;Humidity;BMP_temperature;BMP_pressure;BME280_temperature;BME280_humidity;BME280_pressure;Samples;Min_cycle;Max_cycle;Signal;HPM_P1;HPM_P2
2022/03/25 00:02:09;;;;;;;115.97;54.13;;;2.10;99.90;;;;;;5012705;28;20053;-83
2022/03/25 00:04:35;;;;;;;107.40;52.30;;;2.10;99.90;;;;;;5010767;28;20571;-83
2022/03/25 00:07:01;;;;;;;118.23;52.77;;;2.70;99.90;;;;;;5012099;28;21505;-83
2022/03/25 00:09:26;;;;;;;114.90;51.77;;;2.10;99.90;;;;;;5011624;28;20030;-80
2022/03/25 00:11:53;;;;;;;108.00;51.20;;;;;;;;;;5023397;28;20042;-80
2022/03/25 00:14:19;;;;;;;99.83;48.47;;;2.00;99.90;;;;;;4997359;28;20146;-80
2022/03/25 00:16:46;;;;;;;134.50;48.93;;;3.20;99.90;;;;;;5012845;28;20041;-80
2022/03/25 00:19:12;;;;;;;105.53;49.07;;;2.00;99.90;;;;;;5031212;28;20479;-80
2022/03/25 00:21:38;;;;;;;105.63;51.10;;;1.90;99.90;;;;;;5015906;28;20068;-80
2022/03/25 00:24:05;;;;;;;112.10;52.80;;;2.90;99.90;;;;;;5030727;28;20451;-80
2022/03/25 00:26:31;;;;;;;114.82;53.17;;;1.90;99.90;;;;;;5032621;28;20040;-90
2022/03/25 00:28:57;;;;;;;116.40;53.47;;;1.90;99.90;;;;;;5014386;28;20033;-90
2022/03/25 00:31:23;;;;;;;128.23;55.23;;;1.90;99.90;;;;;;5014137;28;20044;-89
2022/03/25 00:33:49;;;;;;;110.40;54.23;;;1.80;99.90;;;;;;5030574;28;20403;-89
2022/03/25 00:36:18;;;;;;;114.30;52.13;;;1.80;99.90;;;;;;5030625;28;20636;-89
2022/03/25 00:38:45;;;;;;;108.50;52.00;;;2.40;99.90;;;;;;5031275;28;20045;-89
2022/03/25 00:41:12;;;;;;;110.80;51.87;;;1.80;99.90;;;;;;5013565;28;20127;-84
2022/03/25 00:43:38;;;;;;;115.60;51.10;;;1.80;99.90;;;;;;5013898;28;20068;-80
2022/03/25 00:46:04;;;;;;;117.70;52.97;;;2.60;99.90;;;;;;5046977;28;20049;-80
2022/03/25 00:48:32;;;;;;;113.83;52.90;;;1.70;99.90;;;;;;5014857;28;20056;-80
2022/03/25 00:50:58;;;;;;;111.93;52.13;;;1.70;99.90;;;;;;5024930;28;20049;-80
2022/03/25 00:53:25;;;;;;;114.33;52.17;;;1.70;99.90;;;;;;5013662;28;20073;-80
2022/03/25 00:55:52;;;;;;;110.23;50.60;;;1.60;99.90;;;;;;5028203;28;20546;-80
2022/03/25 00:58:18;;;;;;;115.20;52.30;;;1.60;99.90;;;;;;5014671;28;20128;-89
2022/03/25 01:00:45;;;;;;;101.93;48.83;;;1.60;99.90;;;;;;5030808;28;20040;-89
2022/03/25 01:03:11;;;;;;;105.40;49.20;;;1.60;99.90;;;;;;5013847;28;20140;-90
2022/03/25 01:05:37;;;;;;;102.63;48.53;;;1.60;99.90;;;;;;4997925;28;20468;-90
2022/03/25 01:08:04;;;;;;;102.43;48.37;;;1.70;99.90;;;;;;5014017;28;20037;-89
2022/03/25 01:10:31;;;;;;;110.80;49.53;;;1.50;99.90;;;;;;4998105;28;20038;-89
2022/03/25 01:12:57;;;;;;;95.03;46.83;;;2.10;99.90;;;;;;5013806;28;20429;-89
2022/03/25 01:15:23;;;;;;;106.17;50.27;;;1.50;99.90;;;;;;5015446;28;20103;-84
2022/03/25 01:17:49;;;;;;;96.43;47.93;;;1.40;99.90;;;;;;5018348;28;20037;-84
2022/03/25 01:20:17;;;;;;;83.57;42.43;;;1.50;99.90;;;;;;5032036;28;20045;-84
2022/03/25 01:22:43;;;;;;;87.83;43.63;;;1.40;99.90;;;;;;5032204;28;20088;-84
2022/03/25 01:25:10;;;;;;;95.47;45.20;;;1.30;99.90;;;;;;5015783;28;20033;-84
2022/03/25 01:27:36;;;;;;;85.10;43.73;;;1.20;99.90;;;;;;5031551;28;20029;-84
2022/03/25 01:30:03;;;;;;;102.33;47.53;;;1.20;99.90;;;;;;5032299;28;20049;-84
2022/03/25 01:32:28;;;;;;;118.93;52.33;;;1.20;99.90;;;;;;5000085;28;20042;-79
2022/03/25 01:34:54;;;;;;;108.10;49.53;;;1.20;99.90;;;;;;5031789;28;20154;-80
2022/03/25 01:37:20;;;;;;;110.03;49.40;;;1.60;99.90;;;;;;4999014;28;20050;-79
2022/03/25 01:39:46;;;;;;;95.83;47.47;;;1.50;99.90;;;;;;4999606;28;20091;-82
2022/03/25 01:42:11;;;;;;;102.43;47.77;;;1.10;99.90;;;;;;5031824;28;20041;-82
2022/03/25 01:44:37;;;;;;;118.80;51.80;;;1.10;99.90;;;;;;5031586;28;20040;-82
2022/03/25 01:47:07;;;;;;;103.57;48.93;;;1.00;99.90;;;;;;5028385;28;20041;-82
2022/03/25 01:49:34;;;;;;;107.43;49.07;;;1.20;99.90;;;;;;5005019;28;20184;-82
2022/03/25 01:52:02;;;;;;;101.27;47.67;;;1.00;99.90;;;;;;5013797;28;20505;-82
2022/03/25 01:54:30;;;;;;;100.27;47.20;;;1.00;99.90;;;;;;5007009;28;20053;-82
2022/03/25 01:57:03;;;;;;;394.63;65.37;;;1.00;99.90;;;;;;5015325;28;20041;-83
2022/03/25 01:59:30;;;;;;;139.10;56.90;;;1.00;99.90;;;;;;5031645;28;20037;-82
2022/03/25 02:01:56;;;;;;;126.77;53.60;;;1.00;99.90;;;;;;5005209;28;20045;-82
2022/03/25 02:04:23;;;;;;;118.93;51.90;;;0.80;99.90;;;;;;5014753;28;20377;-83
2022/03/25 02:06:49;;;;;;;111.17;49.77;;;2.90;99.90;;;;;;5014908;28;20040;-80
2022/03/25 02:09:15;;;;;;;119.80;52.53;;;0.90;99.90;;;;;;5043043;28;20044;-79
2022/03/25 02:11:42;;;;;;;106.17;49.60;;;1.00;99.90;;;;;;4998137;28;20075;-79
2022/03/25 02:14:09;;;;;;;128.23;55.77;;;2.80;99.90;;;;;;4998236;28;20049;-79
2022/03/25 02:16:43;;;;;;;129.37;57.40;;;0.80;99.90;;;;;;5047824;28;20099;-80
2022/03/25 02:19:11;;;;;;;113.90;53.97;;;0.90;99.90;;;;;;5013592;28;20037;-80
2022/03/25 02:21:38;;;;;;;115.50;54.73;;;0.80;99.90;;;;;;5029297;28;20125;-79
2022/03/25 02:24:09;;;;;;;103.47;50.27;;;2.50;99.90;;;;;;5014486;28;20030;-79
2022/03/25 02:26:36;;;;;;;98.83;47.13;;;;;;;;;;5030734;28;20036;-79
2022/03/25 02:29:04;;;;;;;94.13;46.70;;;;;;;;;;5029653;28;20049;-79
2022/03/25 02:31:30;;;;;;;81.50;41.57;;;;;;;;;;5030865;28;20045;-79
2022/03/25 02:33:57;;;;;;;102.43;44.63;;;;;;;;;;5030508;28;20040;-80
2022/03/25 02:36:23;;;;;;;91.97;43.47;;;;;;;;;;5014192;28;20479;-80
2022/03/25 02:38:49;;;;;;;98.37;45.30;;;;;;;;;;5030971;28;20044;-80
2022/03/25 02:41:15;;;;;;;98.13;45.63;;;;;;;;;;4997004;28;20141;-81
2022/03/25 02:43:42;;;;;;;106.93;47.70;;;;;;;;;;5016899;28;20087;-80
2022/03/25 02:46:08;;;;;;;120.23;51.73;;;;;;;;;;4997083;28;20042;-80
2022/03/25 02:48:34;;;;;;;140.30;49.33;;;;;;;;;;5013854;28;20037;-80
2022/03/25 02:51:01;;;;;;;209.63;54.00;;;;;;;;;;5030075;28;20053;-80
2022/03/25 02:53:27;;;;;;;310.27;58.03;;;;;;;;;;4996973;28;20038;-80
2022/03/25 02:55:54;;;;;;;598.73;68.73;;;;;;;;;;5013977;28;20091;-85
2022/03/25 02:58:20;;;;;;;300.50;55.67;;;;;;;;;;5031302;28;20041;-85
2022/03/25 03:00:47;;;;;;;765.03;80.13;;;;;;;;;;5031877;28;20396;-85
2022/03/25 03:03:13;;;;;;;352.60;61.90;;;;;;;;;;5015086;28;20053;-85
2022/03/25 03:05:39;;;;;;;123.50;51.53;;;;;;;;;;4996264;28;20095;-85
2022/03/25 03:08:06;;;;;;;143.90;54.77;;;;;;;;;;5014126;28;20380;-85
2022/03/25 03:10:32;;;;;;;291.93;48.50;;;;;;;;;;4996907;28;20040;-85
2022/03/25 03:12:59;;;;;;;104.07;45.57;;;;;;;;;;4997494;28;20052;-83
2022/03/25 03:15:25;;;;;;;106.60;45.33;;;;;;;;;;5027812;28;20041;-83
2022/03/25 03:17:51;;;;;;;95.87;39.97;;;;;;;;;;5010238;28;20099;-84
2022/03/25 03:20:18;;;;;;;65.90;35.30;;;;;;;;;;5011709;28;20073;-83
2022/03/25 03:22:45;;;;;;;65.00;37.10;;;;;;;;;;5022589;28;20038;-83
2022/03/25 03:25:11;;;;;;;68.30;37.27;;;;;;;;;;5028197;28;20033;-83
2022/03/25 03:27:40;;;;;;;71.93;38.47;;;;;;;;;;5025080;28;20071;-83
2022/03/25 03:30:08;;;;;;;71.77;36.10;;;;;;;;;;5007307;28;20381;-80
2022/03/25 03:32:35;;;;;;;73.07;36.60;;;;;;;;;;5027708;28;20500;-80
2022/03/25 03:35:01;;;;;;;66.67;34.63;;;;;;;;;;5027931;28;20376;-80
2022/03/25 03:37:28;;;;;;;57.33;31.77;;;;;;;;;;5011547;28;20037;-80
2022/03/25 03:39:54;;;;;;;58.43;33.30;;;;;;;;;;5028539;28;20065;-80
2022/03/25 03:42:20;;;;;;;59.57;31.97;;;;;;;;;;5013312;28;20095;-80
2022/03/25 03:44:46;;;;;;;54.20;30.70;;;;;;;;;;5023836;28;20095;-83
2022/03/25 03:47:14;;;;;;;49.67;29.17;;;;;;;;;;5012476;28;20120;-83
2022/03/25 03:49:40;;;;;;;48.97;29.03;;;;;;;;;;5012766;28;20041;-83
2022/03/25 03:52:10;;;;;;;48.00;28.80;;;;;;;;;;5032223;28;20042;-83
2022/03/25 03:54:38;;;;;;;55.63;31.40;;;;;;;;;;5020144;28;20137;-83
2022/03/25 03:57:04;;;;;;;52.77;29.90;;;;;;;;;;5015478;28;20104;-83
2022/03/25 03:59:30;;;;;;;50.77;28.73;;;;;;;;;;5016422;28;20076;-83
2022/03/25 04:01:56;;;;;;;50.03;28.70;;;;;;;;;;5016504;28;20077;-85
2022/03/25 04:04:22;;;;;;;50.27;28.80;;;;;;;;;;5033713;28;20053;-85
2022/03/25 04:06:48;;;;;;;52.83;28.70;;;;;;;;;;5034029;28;20489;-85
2022/03/25 04:09:14;;;;;;;51.47;28.67;;;0.00;99.90;;;;;;5017272;28;20033;-85
2022/03/25 04:11:40;;;;;;;45.57;27.53;;;-0.10;99.90;;;;;;5033276;28;20510;-85
2022/03/25 04:14:05;;;;;;;51.50;27.70;;;-0.10;99.90;;;;;;5017115;28;20037;-85
2022/03/25 04:16:31;;;;;;;55.37;29.80;;;-0.20;99.90;;;;;;5016576;28;20049;-85
2022/03/25 04:18:57;;;;;;;47.90;28.07;;;-0.10;99.90;;;;;;5016974;28;20049;-85
2022/03/25 04:21:26;;;;;;;51.33;28.60;;;-0.20;99.90;;;;;;5033443;28;20041;-85
2022/03/25 04:23:52;;;;;;;53.13;28.83;;;-0.20;99.90;;;;;;5017268;28;20037;-85
2022/03/25 04:26:18;;;;;;;60.03;30.73;;;0.20;99.90;;;;;;5033217;28;20549;-86
2022/03/25 04:28:43;;;;;;;54.07;27.90;;;1.00;99.90;;;;;;5015664;28;20030;-83
2022/03/25 04:31:09;;;;;;;63.80;32.90;;;-0.20;99.90;;;;;;4999427;28;20088;-83
2022/03/25 04:33:36;;;;;;;67.83;33.27;;;-0.20;99.90;;;;;;4998284;28;20081;-83
2022/03/25 04:36:02;;;;;;;59.60;31.93;;;-0.20;99.90;;;;;;5017254;28;20042;-90
2022/03/25 04:38:28;;;;;;;67.10;33.90;;;-0.20;99.90;;;;;;5032857;28;20045;-90
2022/03/25 04:40:54;;;;;;;63.60;32.23;;;-0.20;99.90;;;;;;5030685;28;20030;-89
2022/03/25 04:43:20;;;;;;;59.13;30.50;;;-0.20;99.90;;;;;;5033098;28;20095;-89
2022/03/25 04:45:46;;;;;;;63.63;30.27;;;0.70;99.90;;;;;;5017099;28;20029;-89
2022/03/25 04:48:12;;;;;;;67.30;33.17;;;-0.30;99.90;;;;;;5015765;28;20529;-89
2022/03/25 04:50:39;;;;;;;67.07;33.77;;;-0.30;99.90;;;;;;5032375;28;20052;-89
2022/03/25 04:53:07;;;;;;;68.97;31.00;;;-0.30;99.90;;;;;;5016674;28;20056;-83
2022/03/25 04:55:33;;;;;;;62.23;31.70;;;-0.30;99.90;;;;;;5032677;28;20041;-83
2022/03/25 04:58:02;;;;;;;69.43;32.53;;;0.20;99.90;;;;;;5016120;28;20124;-83
2022/03/25 05:00:28;;;;;;;71.40;33.97;;;-0.30;99.90;;;;;;5000407;28;20444;-83
2022/03/25 05:02:53;;;;;;;70.43;34.50;;;0.10;99.90;;;;;;4998175;28;20038;-83
2022/03/25 05:05:19;;;;;;;65.90;33.83;;;-0.30;99.90;;;;;;4998446;28;20453;-84
2022/03/25 05:07:47;;;;;;;72.80;32.73;;;-0.30;99.90;;;;;;5000962;28;20416;-83
2022/03/25 05:10:14;;;;;;;69.17;33.23;;;-0.10;99.90;;;;;;5016196;28;20041;-86
2022/03/25 05:12:40;;;;;;;71.40;33.63;;;-0.30;99.90;;;;;;5012511;28;20045;-85
2022/03/25 05:15:06;;;;;;;63.90;32.83;;;-0.40;99.90;;;;;;5016151;28;20107;-86
2022/03/25 05:17:32;;;;;;;75.97;34.40;;;-0.30;99.90;;;;;;5001185;28;20057;-86
2022/03/25 05:19:58;;;;;;;70.57;34.07;;;-0.40;99.90;;;;;;4998371;28;20134;-86
2022/03/25 05:22:24;;;;;;;66.43;33.67;;;-0.20;99.90;;;;;;5015903;28;20041;-86
2022/03/25 05:24:49;;;;;;;64.47;32.30;;;-0.40;99.90;;;;;;4998155;28;20065;-81
2022/03/25 05:27:16;;;;;;;65.67;32.57;;;0.00;99.90;;;;;;5000417;28;20041;-81
2022/03/25 05:29:42;;;;;;;65.30;32.33;;;-0.40;99.90;;;;;;4998067;28;20434;-81
2022/03/25 05:32:09;;;;;;;67.40;33.07;;;-0.30;99.90;;;;;;5015119;28;20041;-81
2022/03/25 05:34:35;;;;;;;72.43;35.80;;;0.80;99.90;;;;;;5015871;28;20399;-81
2022/03/25 05:37:01;;;;;;;65.47;33.90;;;-0.30;99.90;;;;;;4999142;28;20044;-81
2022/03/25 05:39:27;;;;;;;71.83;34.53;;;-0.30;99.90;;;;;;4998048;28;20096;-81
2022/03/25 05:41:53;;;;;;;79.83;37.33;;;-0.30;99.90;;;;;;5013586;28;20041;-83
2022/03/25 05:44:21;;;;;;;74.10;35.23;;;1.00;99.90;;;;;;5015036;28;20038;-83
2022/03/25 05:46:47;;;;;;;77.03;35.47;;;1.30;99.90;;;;;;4994189;28;20042;-83
2022/03/25 05:49:13;;;;;;;72.97;34.63;;;-0.10;99.90;;;;;;4996899;28;20033;-83
2022/03/25 05:51:38;;;;;;;69.20;33.87;;;0.90;99.90;;;;;;5014887;28;20041;-83
2022/03/25 05:54:04;;;;;;;70.47;34.87;;;0.50;99.90;;;;;;5002591;28;20038;-83
2022/03/25 05:56:30;;;;;;;80.13;36.90;;;0.20;99.90;;;;;;4998103;28;20094;-83
2022/03/25 05:58:55;;;;;;;77.67;36.70;;;0.30;99.90;;;;;;5014882;28;20034;-90
2022/03/25 06:01:21;;;;;;;73.07;34.50;;;0.70;99.90;;;;;;5022826;28;20045;-89
2022/03/25 06:03:47;;;;;;;72.87;34.33;;;0.50;99.90;;;;;;5009941;28;20049;-90
2022/03/25 06:06:14;;;;;;;73.90;34.17;;;0.60;99.90;;;;;;5021657;28;20044;-91
2022/03/25 06:08:40;;;;;;;74.77;35.17;;;0.70;99.90;;;;;;5028721;28;20423;-90
2022/03/25 06:11:06;;;;;;;68.87;34.33;;;0.80;99.90;;;;;;5013923;28;20087;-90
2022/03/25 06:13:32;;;;;;;67.90;34.87;;;0.90;99.90;;;;;;5013510;28;20033;-90
2022/03/25 06:15:57;;;;;;;63.53;33.00;;;1.00;99.90;;;;;;5046800;28;20098;-83
2022/03/25 06:18:23;;;;;;;63.13;32.40;;;1.20;99.90;;;;;;5014274;28;20090;-83
2022/03/25 06:20:49;;;;;;;67.00;33.90;;;1.30;99.90;;;;;;5012876;28;20455;-83
2022/03/25 06:23:15;;;;;;;71.23;35.23;;;1.50;99.90;;;;;;5012531;28;20037;-83
2022/03/25 06:25:41;;;;;;;68.13;34.80;;;1.80;99.90;;;;;;4996275;28;20120;-83
2022/03/25 06:28:10;;;;;;;63.25;33.80;;;2.40;99.90;;;;;;5028003;28;20094;-84
2022/03/25 06:30:37;;;;;;;69.07;35.03;;;2.90;99.90;;;;;;5028132;28;20120;-84
2022/03/25 06:33:06;;;;;;;57.72;34.63;;;3.50;99.90;;;;;;5014298;28;20103;-90
2022/03/25 06:35:31;;;;;;;57.60;34.03;;;4.10;99.90;;;;;;5047158;28;20060;-90
2022/03/25 06:37:57;;;;;;;53.65;32.20;;;5.20;99.90;;;;;;5041712;28;20479;-90
2022/03/25 06:40:25;;;;;;;56.25;34.30;;;5.50;99.90;;;;;;5009655;28;20179;-90
2022/03/25 06:42:53;;;;;;;59.22;36.22;;;6.00;99.90;;;;;;5007578;28;20172;-89
2022/03/25 06:45:19;;;;;;;56.60;36.65;;;6.70;99.90;;;;;;5023411;28;20046;-90
2022/03/25 06:47:45;;;;;;;54.67;36.63;;;;;;;;;;5029793;28;20119;-89
2022/03/25 06:50:13;;;;;;;49.28;34.15;;;8.20;99.90;;;;;;5012953;28;20522;-86
2022/03/25 06:52:39;;;;;;;57.03;37.78;;;8.30;99.90;;;;;;5013389;28;20056;-86
2022/03/25 06:55:08;;;;;;;52.42;35.45;;;8.80;99.90;;;;;;5029536;28;20080;-87
2022/03/25 06:57:34;;;;;;;54.83;37.20;;;9.30;99.90;;;;;;5014550;28;20049;-86
2022/03/25 07:00:01;;;;;;;51.13;36.03;;;9.80;99.90;;;;;;5028268;28;20389;-86
2022/03/25 07:02:27;;;;;;;48.45;35.30;;;10.30;99.90;;;;;;5014010;28;20034;-86
2022/03/25 07:04:53;;;;;;;50.92;35.75;;;10.70;99.90;;;;;;5013380;28;20051;-86
2022/03/25 07:07:21;;;;;;;47.03;34.80;;;11.20;99.90;;;;;;5013017;28;20124;-86
2022/03/25 07:09:47;;;;;;;48.17;34.58;;;11.60;99.90;;;;;;5012564;28;20045;-87
2022/03/25 07:12:15;;;;;;;43.63;32.42;;;11.90;99.90;;;;;;4996454;28;20041;-86
2022/03/25 07:14:40;;;;;;;43.08;33.05;;;12.30;99.90;;;;;;5029451;28;20049;-87
2022/03/25 07:17:06;;;;;;;45.58;33.53;;;12.60;99.90;;;;;;5022769;28;20087;-87
2022/03/25 07:19:32;;;;;;;44.88;33.33;;;13.00;99.90;;;;;;5012258;28;20045;-86
2022/03/25 07:21:58;;;;;;;41.13;31.90;;;13.40;99.90;;;;;;5029258;28;20052;-85
2022/03/25 07:24:23;;;;;;;44.13;34.03;;;13.80;99.90;;;;;;5011429;28;20052;-85
2022/03/25 07:26:49;;;;;;;41.38;32.53;;;14.10;99.90;;;;;;5011838;28;20041;-85
2022/03/25 07:29:15;;;;;;;38.45;31.42;;;14.60;99.90;;;;;;5012372;28;20099;-86
2022/03/25 07:31:41;;;;;;;36.70;29.17;;;14.90;99.90;;;;;;5028485;28;20041;-85
2022/03/25 07:34:06;;;;;;;36.28;28.80;;;15.30;99.90;;;;;;5026604;28;20132;-84
2022/03/25 07:36:33;;;;;;;40.33;28.70;;;15.60;99.90;;;;;;5006976;28;20040;-84
2022/03/25 07:38:58;;;;;;;38.55;28.00;;;15.90;99.90;;;;;;5027466;28;20037;-84
2022/03/25 07:41:24;;;;;;;32.85;26.23;;;16.20;99.90;;;;;;5010057;28;20446;-84
2022/03/25 07:43:52;;;;;;;30.20;24.92;;;16.50;99.90;;;;;;5029978;28;20095;-83
2022/03/25 07:46:18;;;;;;;34.72;26.15;;;16.70;99.90;;;;;;5010537;28;20033;-83
2022/03/25 07:48:44;;;;;;;31.10;25.58;;;16.80;99.90;;;;;;5012177;28;20183;-83
2022/03/25 07:51:10;;;;;;;31.27;24.02;;;17.20;99.90;;;;;;5013171;28;20037;-84
2022/03/25 07:53:36;;;;;;;29.27;23.38;;;17.70;98.90;;;;;;5029607;28;20065;-84
2022/03/25 07:56:02;;;;;;;29.10;23.80;;;18.00;98.10;;;;;;5014369;28;20037;-91
2022/03/25 07:58:28;;;;;;;30.30;23.83;;;18.40;96.60;;;;;;5013545;28;20057;-90
2022/03/25 08:00:54;;;;;;;27.85;23.55;;;18.90;96.10;;;;;;5012299;28;20200;-86
2022/03/25 08:03:21;;;;;;;27.70;22.58;;;19.40;94.40;;;;;;5011410;28;20137;-86
2022/03/25 08:05:48;;;;;;;27.52;22.65;;;19.60;92.50;;;;;;5014537;28;20034;-87
2022/03/25 08:08:15;;;;;;;27.40;21.13;;;19.70;91.00;;;;;;5013271;28;20040;-87
2022/03/25 08:10:41;;;;;;;25.23;20.45;;;20.10;87.50;;;;;;5031284;28;20038;-86
2022/03/25 08:13:07;;;;;;;26.33;19.73;;;20.50;83.10;;;;;;5027811;28;20059;-82
2022/03/25 08:15:34;;;;;;;22.83;19.35;;;20.70;78.00;;;;;;5029024;28;20561;-82
2022/03/25 08:18:02;;;;;;;25.63;20.70;;;20.90;75.90;;;;;;4996143;28;20120;-82
2022/03/25 08:20:29;;;;;;;27.30;19.98;;;21.20;73.70;;;;;;5027055;28;20034;-81
2022/03/25 08:22:59;;;;;;;24.17;19.45;;;21.60;72.30;;;;;;5012664;28;20059;-81
2022/03/25 08:28:10;;;;;;;;;;;21.90;68.10;;;;;;5042067;28;20054;-84
2022/03/25 08:30:37;;;;;;;27.33;20.77;;;22.00;64.30;;;;;;5025069;28;19929;-84
2022/03/25 08:33:04;;;;;;;25.38;19.13;;;22.20;67.30;;;;;;5027984;28;20371;-84
2022/03/25 08:35:30;;;;;;;22.88;17.58;;;22.50;65.40;;;;;;5027153;28;20049;-85
2022/03/25 08:37:57;;;;;;;25.95;20.00;;;22.50;62.90;;;;;;5013978;28;20099;-85
2022/03/25 08:40:25;;;;;;;26.48;22.83;;;22.80;61.80;;;;;;5033102;28;20134;-84
2022/03/25 08:42:51;;;;;;;32.65;26.20;;;23.30;61.60;;;;;;5029046;28;20077;-85
2022/03/25 08:45:17;;;;;;;37.88;32.50;;;23.70;60.90;;;;;;5028931;28;20167;-84
2022/03/25 08:47:48;;;;;;;50.28;43.28;;;23.70;59.90;;;;;;4999364;28;20455;-84
2022/03/25 08:50:15;;;;;;;52.28;43.83;;;23.80;59.00;;;;;;5031154;28;20060;-84
2022/03/25 08:52:41;;;;;;;55.28;43.65;;;23.60;58.80;;;;;;5013301;28;20046;-84
2022/03/25 08:55:11;;;;;;;50.83;43.33;;;23.00;58.30;;;;;;5015883;28;20049;-85
2022/03/25 08:57:38;;;;;;;54.03;42.90;;;22.40;58.80;;;;;;5014164;28;20041;-84
2022/03/25 09:00:10;;;;;;;42.95;35.42;;;22.40;59.70;;;;;;5012802;28;20042;-84
2022/03/25 09:02:41;;;;;;;38.40;31.48;;;22.40;59.00;;;;;;5037270;23;20046;-82
2022/03/25 09:05:08;;;;;;;42.28;33.50;;;22.70;59.20;;;;;;5007477;28;20050;-82
2022/03/25 09:07:34;;;;;;;42.45;33.83;;;23.00;58.30;;;;;;5009028;28;20030;-82
2022/03/25 09:09:59;;;;;;;44.95;36.35;;;23.40;57.60;;;;;;5009562;28;20403;-82
2022/03/25 09:12:25;;;;;;;45.28;32.08;;;23.70;57.20;;;;;;4993702;28;20041;-82
2022/03/25 09:14:51;;;;;;;39.55;31.58;;;24.40;55.90;;;;;;5007825;28;20126;-82
2022/03/25 09:17:17;;;;;;;40.55;30.70;;;25.00;55.30;;;;;;5007705;28;20472;-82
2022/03/25 09:19:43;;;;;;;30.33;22.38;;;25.40;54.80;;;;;;4995576;28;20045;-83
2022/03/25 09:22:10;;;;;;;29.52;20.98;;;25.90;53.00;;;;;;5010777;28;20578;-82
2022/03/25 09:24:35;;;;;;;36.72;27.35;;;26.10;53.20;;;;;;4991104;28;20037;-83
2022/03/25 09:27:02;;;;;;;40.30;28.92;;;26.50;51.40;;;;;;5009532;28;21351;-82
2022/03/25 09:29:28;;;;;;;29.73;22.73;;;26.60;50.60;;;;;;4992045;28;20038;-85
2022/03/25 09:31:53;;;;;;;27.02;19.58;;;26.80;49.90;;;;;;4993422;28;20033;-85
2022/03/25 09:37:03;;;;;;;22.73;15.85;;;27.00;48.10;;;;;;5011089;28;20595;-85
2022/03/25 09:39:29;;;;;;;23.35;16.83;;;27.10;47.90;;;;;;5010687;28;20042;-84
2022/03/25 09:41:57;;;;;;;20.83;15.18;;;27.30;47.80;;;;;;4992910;28;20080;-85
2022/03/25 09:44:23;;;;;;;19.50;14.95;;;27.60;46.20;;;;;;4991985;28;20038;-85
2022/03/25 09:46:50;;;;;;;18.45;15.40;;;27.40;46.30;;;;;;4988487;28;20452;-85
2022/03/25 09:49:18;;;;;;;20.58;15.77;;;27.90;45.30;;;;;;5006393;28;20049;-85
2022/03/25 09:51:44;;;;;;;21.10;16.00;;;28.00;46.20;;;;;;4988757;28;20099;-85
2022/03/25 09:54:13;;;;;;;19.35;15.20;;;28.20;45.40;;;;;;4995182;28;20097;-86
2022/03/25 09:56:40;;;;;;;19.52;15.55;;;28.30;46.30;;;;;;4989332;28;20078;-86
2022/03/25 09:59:09;;;;;;;19.90;16.48;;;28.40;44.90;;;;;;5011191;28;20523;-86
2022/03/25 10:01:35;;;;;;;19.73;16.92;;;28.40;45.40;;;;;;4989971;28;20045;-87
2022/03/25 10:04:01;;;;;;;22.58;15.45;;;28.60;44.80;;;;;;4991441;28;20084;-86
2022/03/25 10:06:27;;;;;;;19.45;14.52;;;28.50;44.20;;;;;;5006975;28;20046;-86
2022/03/25 10:08:58;;;;;;;18.58;15.23;;;28.50;44.40;;;;;;5005403;28;20045;-86
2022/03/25 10:11:30;;;;;;;20.45;15.68;;;28.70;43.60;;;;;;5012810;28;20045;-86
2022/03/25 10:14:23;;;;;;;20.35;16.05;;;28.60;44.30;;;;;;4996664;28;20050;-87
2022/03/25 10:16:51;;;;;;;18.63;16.63;;;28.80;42.50;;;;;;4994157;28;20038;-87
2022/03/25 10:19:21;;;;;;;19.73;16.20;;;29.00;43.90;;;;;;5006872;28;20500;-87
2022/03/25 10:22:00;;;;;;;18.50;16.05;;;29.20;43.40;;;;;;4992279;28;20053;-86
2022/03/25 10:24:49;;;;;;;21.83;16.55;;;29.40;44.20;;;;;;5005526;28;20395;-87
2022/03/25 10:27:23;;;;;;;22.38;17.63;;;29.60;43.00;;;;;;5010065;28;20041;-86
2022/03/25 10:29:50;;;;;;;25.10;18.55;;;29.80;42.90;;;;;;5001482;28;20037;-87
2022/03/25 10:32:24;;;;;;;24.38;18.75;;;30.10;42.20;;;;;;4975284;28;20038;-86
2022/03/25 10:35:07;;;;;;;26.08;19.17;;;30.10;40.90;;;;;;4984711;28;20033;-86
2022/03/25 10:37:33;;;;;;;23.33;18.67;;;30.00;39.80;;;;;;5010642;28;20049;-86
2022/03/25 10:39:59;;;;;;;24.13;18.95;;;29.70;40.30;;;;;;4990256;28;20050;-86
2022/03/25 10:42:25;;;;;;;22.58;18.63;;;29.60;41.10;;;;;;5009551;28;20038;-85
2022/03/25 10:44:50;;;;;;;21.38;18.08;;;30.00;41.60;;;;;;4993677;28;20072;-85
2022/03/25 10:47:19;;;;;;;22.50;18.95;;;30.40;41.30;;;;;;5009228;28;20046;-85
2022/03/25 10:49:47;;;;;;;22.80;18.48;;;30.20;41.30;;;;;;4990948;28;20034;-85
2022/03/25 10:52:30;;;;;;;23.50;19.50;;;30.20;41.40;;;;;;5008910;28;20702;-85
2022/03/25 10:55:16;;;;;;;24.30;18.40;;;30.60;40.60;;;;;;5010697;28;20125;-85
2022/03/25 10:57:47;;;;;;;22.48;17.98;;;30.60;40.50;;;;;;5009236;28;20061;-85
2022/03/25 11:00:14;;;;;;;24.85;18.67;;;30.80;40.20;;;;;;5010921;28;20088;-85
2022/03/25 11:02:40;;;;;;;24.08;18.70;;;30.70;41.30;;;;;;5011202;28;20050;-85
2022/03/25 11:05:09;;;;;;;23.35;18.30;;;30.80;40.80;;;;;;5008514;28;20045;-85
2022/03/25 11:07:40;;;;;;;27.48;18.60;;;30.80;39.70;;;;;;5009476;28;20080;-85
2022/03/25 11:10:06;;;;;;;22.13;18.20;;;30.80;39.70;;;;;;4976806;28;20056;-86
2022/03/25 11:12:32;;;;;;;25.13;21.25;;;30.80;40.00;;;;;;4984711;28;20041;-87
2022/03/25 11:14:59;;;;;;;20.60;17.38;;;30.60;40.50;;;;;;5012456;28;20045;-85
2022/03/25 11:17:31;;;;;;;22.85;18.60;;;30.90;40.30;;;;;;5009382;28;20391;-85
2022/03/25 11:20:00;;;;;;;25.15;19.45;;;31.20;39.90;;;;;;5006575;28;20038;-85
2022/03/25 11:22:26;;;;;;;30.80;21.80;;;31.20;39.60;;;;;;4992784;28;20065;-84
2022/03/25 11:24:55;;;;;;;27.00;21.02;;;31.00;39.10;;;;;;5011379;28;20037;-84
2022/03/25 11:27:28;;;;;;;23.15;19.33;;;31.10;39.30;;;;;;5010486;28;20045;-84
2022/03/25 11:29:58;;;;;;;25.25;19.83;;;30.90;39.40;;;;;;5008331;28;20041;-84
2022/03/25 11:32:24;;;;;;;20.38;18.02;;;31.10;39.50;;;;;;5010429;28;20065;-84
2022/03/25 11:34:55;;;;;;;22.77;17.48;;;30.80;39.30;;;;;;5005974;28;20065;-84
2022/03/25 11:37:33;;;;;;;25.27;18.55;;;30.90;39.20;;;;;;5010994;28;20388;-84
2022/03/25 11:40:25;;;;;;;24.45;17.85;;;31.00;39.00;;;;;;5022869;28;20422;-83
2022/03/25 11:42:53;;;;;;;22.65;16.63;;;30.80;40.90;;;;;;5005948;28;20041;-84
2022/03/25 11:45:22;;;;;;;21.42;17.27;;;30.50;39.40;;;;;;5011839;28;20481;-83
2022/03/25 11:48:00;;;;;;;21.75;16.88;;;30.50;39.10;;;;;;5007182;28;20034;-84
2022/03/25 11:50:39;;;;;;;22.73;16.02;;;30.80;38.40;;;;;;5008055;28;20121;-86
2022/03/25 11:53:11;;;;;;;19.88;15.93;;;31.10;38.90;;;;;;4991442;28;20034;-86
2022/03/25 11:56:11;;;;;;;19.52;15.25;;;31.00;39.20;;;;;;5006756;28;20484;-86
2022/03/25 11:58:39;;;;;;;21.13;15.38;;;31.30;38.30;;;;;;4993228;28;20033;-86
2022/03/25 12:01:16;;;;;;;21.58;15.10;;;31.30;38.30;;;;;;5008841;28;20050;-86
2022/03/25 12:03:43;;;;;;;23.45;16.77;;;31.20;38.20;;;;;;5024492;28;20116;-86
2022/03/25 12:06:10;;;;;;;21.30;15.30;;;31.10;37.80;;;;;;5024332;28;20034;-83
2022/03/25 12:08:35;;;;;;;21.73;15.52;;;31.10;37.40;;;;;;5008426;28;20396;-84
2022/03/25 12:11:05;;;;;;;21.13;14.80;;;30.80;37.60;;;;;;5008764;28;20038;-84
2022/03/25 12:13:58;;;;;;;24.55;14.45;;;30.60;37.20;;;;;;5007947;28;20042;-83
2022/03/25 12:16:46;;;;;;;21.50;14.63;;;30.40;37.40;;;;;;5011379;28;20085;-83
2022/03/25 12:19:30;;;;;;;22.10;13.90;;;30.40;37.80;;;;;;5009751;28;20042;-83
2022/03/25 12:22:03;;;;;;;19.13;12.68;;;30.60;37.80;;;;;;5012421;28;20085;-85
2022/03/25 12:24:31;;;;;;;19.95;12.60;;;30.30;36.90;;;;;;5011216;28;20111;-85
2022/03/25 12:26:58;;;;;;;18.05;12.43;;;30.30;37.00;;;;;;4995001;28;20038;-85
2022/03/25 12:29:35;;;;;;;18.55;12.88;;;30.40;37.10;;;;;;4995920;28;20060;-84
2022/03/25 12:32:03;;;;;;;18.08;12.80;;;30.60;37.10;;;;;;5008506;28;20050;-85
2022/03/25 12:34:34;;;;;;;22.92;15.13;;;30.30;37.10;;;;;;5011975;28;20060;-85
2022/03/25 12:37:02;;;;;;;19.15;13.73;;;30.40;37.00;;;;;;5009278;28;20092;-85
2022/03/25 12:39:29;;;;;;;22.88;14.38;;;30.30;36.70;;;;;;4973351;28;20041;-84
2022/03/25 12:41:55;;;;;;;20.50;14.60;;;30.10;37.30;;;;;;5005533;28;20042;-84
2022/03/25 12:44:29;;;;;;;22.48;14.48;;;30.00;38.20;;;;;;5011915;28;20025;-85
2022/03/25 12:47:00;;;;;;;18.48;13.77;;;29.90;38.20;;;;;;5009510;28;20046;-85
2022/03/25 12:49:26;;;;;;;20.30;14.23;;;29.80;38.10;;;;;;5009972;28;20034;-85
2022/03/25 12:52:00;;;;;;;18.80;13.95;;;29.70;38.70;;;;;;4994927;28;20112;-85